Time;durP1;ratioP1;P1;durP2;ratioP2;P2;SDS_P1;SDS_P2;PMS_P1;PMS_P2;Temp;Humidity;BMP_temperature;BMP_pressure;BME280_temperature;BME280_humidity;BME280_pressure;Samples;Min_cycle;Max_cycle;Signal;HPM_P1;HPM_P2
2021/03/09 00:01:58;;;;;;;11.17;4.70;;;3.00;59.60;;;;;;5061699;28;20180;-80
2021/03/09 00:04:24;;;;;;;7.47;4.77;;;3.00;59.80;;;;;;5040458;28;20178;-81
2021/03/09 00:06:50;;;;;;;6.73;4.97;;;3.00;60.00;;;;;;5067690;28;20243;-82
2021/03/09 00:09:15;;;;;;;5.43;3.50;;;2.90;60.00;;;;;;5039168;28;20313;-81
2021/03/09 00:11:41;;;;;;;11.53;5.37;;;2.90;59.80;;;;;;5053522;28;20253;-80
2021/03/09 00:14:07;;;;;;;4.90;4.03;;;2.90;60.20;;;;;;5065988;28;20187;-81
2021/03/09 00:16:32;;;;;;;5.23;4.70;;;2.90;60.30;;;;;;5066862;28;20202;-82
2021/03/09 00:18:58;;;;;;;7.27;4.93;;;2.90;60.60;;;;;;5051416;28;20182;-81
2021/03/09 00:21:24;;;;;;;7.53;5.33;;;2.80;60.50;;;;;;5064614;28;20175;-81
2021/03/09 00:23:49;;;;;;;9.10;6.10;;;2.80;60.80;;;;;;5064365;28;20191;-81
2021/03/09 00:26:15;;;;;;;8.20;5.70;;;2.80;61.20;;;;;;5041140;28;20182;-80
2021/03/09 00:28:41;;;;;;;10.93;6.83;;;2.70;61.10;;;;;;5054615;28;20218;-82
2021/03/09 00:31:06;;;;;;;13.33;6.53;;;2.70;61.10;;;;;;5053053;28;20687;-81
2021/03/09 00:33:32;;;;;;;12.13;7.70;;;2.70;61.30;;;;;;5033302;28;20248;-81
2021/03/09 00:35:58;;;;;;;15.90;7.90;;;2.60;61.40;;;;;;5042512;28;20203;-81
2021/03/09 00:38:23;;;;;;;9.20;6.63;;;2.60;61.40;;;;;;5051588;28;20186;-80
2021/03/09 00:41:08;;;;;;;17.00;7.87;;;2.60;61.30;;;;;;5056772;28;20290;-81
2021/03/09 00:43:34;;;;;;;11.97;7.17;;;2.50;61.40;;;;;;5058331;28;20173;-81
2021/03/09 00:45:59;;;;;;;11.80;6.87;;;2.50;61.70;;;;;;5047809;28;20221;-81
2021/03/09 00:48:25;;;;;;;15.07;7.37;;;2.50;61.60;;;;;;5046169;28;20182;-81
2021/03/09 00:50:51;;;;;;;12.73;6.73;;;2.50;61.50;;;;;;5064358;28;20242;-81
2021/03/09 00:53:16;;;;;;;13.07;7.47;;;2.50;61.90;;;;;;5053120;28;20190;-80
2021/03/09 00:55:42;;;;;;;9.77;6.80;;;2.50;61.80;;;;;;5056673;28;20275;-80
2021/03/09 00:58:07;;;;;;;14.83;7.83;;;2.50;61.90;;;;;;5039891;28;20187;-81
2021/03/09 01:00:33;;;;;;;13.30;7.30;;;2.50;61.70;;;;;;5059663;28;20217;-80
2021/03/09 01:03:12;;;;;;;12.40;7.13;;;2.50;61.50;;;;;;5056587;28;20183;-80
2021/03/09 01:05:38;;;;;;;14.13;6.47;;;2.60;61.60;;;;;;5045054;28;20191;-81
2021/03/09 01:08:04;;;;;;;12.70;6.97;;;2.60;61.50;;;;;;5050959;28;20193;-81
2021/03/09 01:10:29;;;;;;;15.07;8.83;;;2.60;61.50;;;;;;5044061;28;20195;-82
2021/03/09 01:12:55;;;;;;;12.93;7.80;;;2.60;61.30;;;;;;5072888;28;20192;-80
2021/03/09 01:15:21;;;;;;;13.50;6.93;;;2.60;61.50;;;;;;5053322;28;20202;-80
2021/03/09 01:17:46;;;;;;;17.93;7.27;;;2.60;61.30;;;;;;5067465;28;20183;-81
2021/03/09 01:20:13;;;;;;;11.20;5.77;;;2.60;61.50;;;;;;5067263;28;20196;-81
2021/03/09 01:22:39;;;;;;;7.80;5.00;;;2.60;61.50;;;;;;5049865;28;20187;-81
2021/03/09 01:25:06;;;;;;;9.77;5.87;;;2.60;61.60;;;;;;5040890;28;20241;-80
2021/03/09 01:27:32;;;;;;;12.87;6.00;;;2.60;61.70;;;;;;5041939;28;20186;-80
2021/03/09 01:29:58;;;;;;;7.27;4.67;;;2.60;62.20;;;;;;5045047;28;20183;-81
2021/03/09 01:32:24;;;;;;;12.33;4.80;;;2.60;61.70;;;;;;5049064;28;20190;-81
2021/03/09 01:34:50;;;;;;;9.37;4.70;;;2.60;61.20;;;;;;5083948;28;20209;-80
2021/03/09 01:37:16;;;;;;;11.20;5.90;;;2.60;61.10;;;;;;5050421;28;20175;-80
2021/03/09 01:39:42;;;;;;;6.13;4.13;;;2.50;60.50;;;;;;5049933;28;20699;-80
2021/03/09 01:42:08;;;;;;;10.87;4.93;;;2.60;60.90;;;;;;5059846;28;20939;-82
2021/03/09 01:44:33;;;;;;;6.83;4.07;;;2.50;60.70;;;;;;5069023;28;20661;-81
2021/03/09 01:47:01;;;;;;;11.73;4.73;;;2.50;61.30;;;;;;5064237;28;20218;-82
2021/03/09 01:49:31;;;;;;;9.57;4.83;;;2.50;61.20;;;;;;5049405;28;20310;-81
2021/03/09 01:51:57;;;;;;;8.50;4.70;;;2.50;61.30;;;;;;5037649;28;20188;-81
2021/03/09 01:54:24;;;;;;;6.03;4.60;;;2.50;61.10;;;;;;5063739;28;20187;-82
2021/03/09 01:56:50;;;;;;;9.33;5.10;;;2.50;60.80;;;;;;5052027;28;20195;-84
2021/03/09 01:59:17;;;;;;;7.37;3.27;;;2.50;60.90;;;;;;5070635;28;20182;-85
2021/03/09 02:01:43;;;;;;;8.70;4.97;;;2.50;60.90;;;;;;5061286;28;20178;-86
2021/03/09 02:04:11;;;;;;;4.07;3.60;;;2.50;61.00;;;;;;5051450;28;20811;-86
2021/03/09 02:06:36;;;;;;;5.23;4.73;;;2.50;61.00;;;;;;5044529;28;20703;-85
2021/03/09 02:09:03;;;;;;;6.73;4.77;;;2.50;61.40;;;;;;5045795;28;20297;-84
2021/03/09 02:11:54;;;;;;;7.40;4.57;;;2.50;61.30;;;;;;5060844;28;20235;-83
2021/03/09 02:14:41;;;;;;;8.53;4.67;;;2.50;61.40;;;;;;5040552;28;20187;-85
2021/03/09 02:17:24;;;;;;;6.03;4.73;;;2.50;61.50;;;;;;5046496;28;20203;-84
2021/03/09 02:20:09;;;;;;;7.50;4.93;;;2.50;61.50;;;;;;5039461;28;20203;-86
2021/03/09 02:23:19;;;;;;;7.23;4.43;;;2.50;61.60;;;;;;5042175;28;20206;-84
2021/03/09 02:26:15;;;;;;;8.20;4.77;;;2.50;61.70;;;;;;5093408;28;20183;-83
2021/03/09 02:29:03;;;;;;;5.00;4.20;;;2.50;61.70;;;;;;5050577;28;20183;-84
2021/03/09 02:31:31;;;;;;;7.57;4.27;;;2.50;61.80;;;;;;5070049;28;20232;-84
2021/03/09 02:34:07;;;;;;;8.27;4.07;;;2.50;61.80;;;;;;5059252;28;20619;-84
2021/03/09 02:36:34;;;;;;;6.80;3.80;;;2.40;62.00;;;;;;5036813;28;20229;-84
2021/03/09 02:39:06;;;;;;;9.57;4.10;;;2.40;61.80;;;;;;5036381;28;20184;-85
2021/03/09 02:41:36;;;;;;;6.00;4.60;;;2.40;61.90;;;;;;5052426;28;20195;-84
2021/03/09 02:44:04;;;;;;;9.77;4.87;;;2.40;61.90;;;;;;5090950;28;20259;-83
2021/03/09 02:46:34;;;;;;;4.80;4.27;;;2.40;62.20;;;;;;5041340;28;20226;-84
2021/03/09 02:49:01;;;;;;;9.93;3.57;;;2.40;62.70;;;;;;5060180;28;20605;-83
2021/03/09 02:51:29;;;;;;;10.87;5.27;;;2.40;63.20;;;;;;5071060;28;20270;-83
2021/03/09 02:53:58;;;;;;;11.07;5.07;;;2.40;63.20;;;;;;5043647;28;20237;-84
2021/03/09 02:56:24;;;;;;;3.93;3.57;;;2.40;63.30;;;;;;5055683;28;20257;-85
2021/03/09 02:58:55;;;;;;;6.30;4.67;;;2.30;64.00;;;;;;5046979;28;20192;-84
2021/03/09 03:01:24;;;;;;;6.13;4.63;;;2.30;64.10;;;;;;5045372;28;20294;-84
2021/03/09 03:03:52;;;;;;;5.37;4.77;;;2.30;63.70;;;;;;5083813;28;20218;-84
2021/03/09 03:06:19;;;;;;;7.43;5.07;;;2.20;63.20;;;;;;5072668;28;20217;-85
2021/03/09 03:08:45;;;;;;;19.03;4.60;;;2.20;63.50;;;;;;5050480;28;20659;-84
2021/03/09 03:11:13;;;;;;;9.60;4.67;;;2.10;63.50;;;;;;5036826;28;20198;-84
2021/03/09 03:13:40;;;;;;;7.63;4.20;;;2.10;63.30;;;;;;5047321;28;20750;-84
2021/03/09 03:16:08;;;;;;;8.17;4.90;;;2.10;63.20;;;;;;5041082;28;20215;-84
2021/03/09 03:18:40;;;;;;;7.53;5.27;;;2.10;63.20;;;;;;5051944;28;20302;-84
2021/03/09 03:21:09;;;;;;;11.50;4.63;;;2.10;63.20;;;;;;5041431;28;20191;-83
2021/03/09 03:23:36;;;;;;;9.10;4.63;;;2.20;63.40;;;;;;5073597;28;20241;-84
2021/03/09 03:26:05;;;;;;;5.53;3.70;;;2.20;63.50;;;;;;5078037;28;20203;-85
2021/03/09 03:28:34;;;;;;;7.03;5.17;;;2.20;63.90;;;;;;5054457;28;20583;-85
2021/03/09 03:31:01;;;;;;;6.50;4.47;;;2.20;64.60;;;;;;5067638;28;20191;-83
2021/03/09 03:33:27;;;;;;;4.67;3.77;;;2.20;65.00;;;;;;5050326;28;20183;-84
2021/03/09 03:35:53;;;;;;;5.00;4.60;;;2.10;64.90;;;;;;5036300;28;20684;-84
2021/03/09 03:38:20;;;;;;;6.13;4.47;;;2.10;65.40;;;;;;5038104;28;20183;-84
2021/03/09 03:40:46;;;;;;;5.70;4.83;;;2.10;65.20;;;;;;5063033;28;20175;-84
2021/03/09 03:43:12;;;;;;;4.97;4.37;;;2.10;65.10;;;;;;5045031;28;20593;-84
2021/03/09 03:45:38;;;;;;;7.43;4.77;;;2.00;65.20;;;;;;5063104;28;20182;-84
2021/03/09 03:48:04;;;;;;;10.40;4.77;;;2.00;65.30;;;;;;5054823;28;20183;-85
2021/03/09 03:50:30;;;;;;;9.87;4.87;;;2.00;65.50;;;;;;5066486;28;20186;-84
2021/03/09 03:53:20;;;;;;;11.43;5.33;;;1.90;65.90;;;;;;5069996;28;20179;-84
2021/03/09 03:56:01;;;;;;;3.97;3.57;;;1.90;66.20;;;;;;5076813;28;20211;-84
2021/03/09 03:58:34;;;;;;;5.00;4.57;;;1.90;66.30;;;;;;5043810;28;20233;-86
2021/03/09 04:01:06;;;;;;;6.07;4.47;;;1.90;66.20;;;;;;5061704;28;20219;-83
2021/03/09 04:03:33;;;;;;;7.20;5.07;;;1.90;66.10;;;;;;5036111;28;20618;-84
2021/03/09 04:06:02;;;;;;;4.77;4.23;;;1.90;65.80;;;;;;5055700;28;20215;-84
2021/03/09 04:08:29;;;;;;;5.53;3.77;;;2.00;65.60;;;;;;5046131;28;20187;-85
2021/03/09 04:10:55;;;;;;;11.73;5.10;;;2.00;65.50;;;;;;5042499;28;20686;-84
2021/03/09 04:13:24;;;;;;;6.30;3.90;;;2.00;65.50;;;;;;5066505;28;20281;-84
2021/03/09 04:15:51;;;;;;;5.73;3.87;;;2.10;65.30;;;;;;5050527;28;20218;-84
2021/03/09 04:18:18;;;;;;;6.57;3.73;;;2.10;65.40;;;;;;5042603;28;20255;-84
2021/03/09 04:20:45;;;;;;;11.37;4.87;;;2.20;65.70;;;;;;5070777;28;20206;-84
2021/03/09 04:23:11;;;;;;;3.97;3.60;;;2.20;65.90;;;;;;5057420;28;20254;-84
2021/03/09 04:25:40;;;;;;;8.43;4.63;;;2.30;65.90;;;;;;5049892;28;20278;-84
2021/03/09 04:28:05;;;;;;;5.90;3.47;;;2.40;65.80;;;;;;5052681;28;20252;-84
2021/03/09 04:30:32;;;;;;;4.47;3.93;;;2.40;65.80;;;;;;5069037;28;20655;-84
2021/03/09 04:32:59;;;;;;;7.50;4.33;;;2.40;65.80;;;;;;5062548;28;20218;-85
2021/03/09 04:35:26;;;;;;;9.10;3.83;;;2.40;65.70;;;;;;5058898;28;20199;-85
2021/03/09 04:37:53;;;;;;;9.07;4.20;;;2.40;65.60;;;;;;5055602;28;20254;-84
2021/03/09 04:40:19;;;;;;;8.50;4.70;;;2.40;65.70;;;;;;5052313;28;20271;-84
2021/03/09 04:42:45;;;;;;;7.67;4.40;;;2.40;66.10;;;;;;5058617;28;20234;-85
2021/03/09 04:45:11;;;;;;;4.00;3.50;;;2.40;66.00;;;;;;5076755;28;20182;-84
2021/03/09 04:47:38;;;;;;;7.60;4.07;;;2.30;66.20;;;;;;5071742;28;20814;-83
2021/03/09 04:50:07;;;;;;;6.27;4.93;;;2.30;66.00;;;;;;5036866;28;20997;-82
2021/03/09 04:52:33;;;;;;;7.10;4.63;;;2.30;65.90;;;;;;5056541;28;20211;-83
2021/03/09 04:54:59;;;;;;;9.03;4.13;;;2.30;66.20;;;;;;5040388;28;20215;-84
2021/03/09 04:57:45;;;;;;;3.87;3.47;;;2.20;66.40;;;;;;5040268;28;20883;-84
2021/03/09 05:00:13;;;;;;;4.17;3.80;;;2.20;66.40;;;;;;5043933;28;20183;-84
2021/03/09 05:02:39;;;;;;;6.83;2.87;;;2.20;66.70;;;;;;5057208;28;20938;-83
2021/03/09 05:05:05;;;;;;;4.90;3.00;;;2.20;66.60;;;;;;5068852;28;20191;-85
2021/03/09 05:07:31;;;;;;;4.00;3.70;;;2.20;66.50;;;;;;5074277;28;20263;-86
2021/03/09 05:09:57;;;;;;;4.97;3.77;;;2.20;66.60;;;;;;5039839;28;20267;-84
2021/03/09 05:12:22;;;;;;;4.53;4.00;;;2.20;66.60;;;;;;5059685;28;20884;-87
2021/03/09 05:14:48;;;;;;;5.90;4.23;;;2.20;66.70;;;;;;5068943;28;20179;-86
2021/03/09 05:17:14;;;;;;;6.00;3.67;;;2.20;67.00;;;;;;5053219;28;20241;-86
2021/03/09 05:19:40;;;;;;;6.73;4.03;;;2.20;67.00;;;;;;5070481;28;20290;-85
2021/03/09 05:22:06;;;;;;;13.33;4.10;;;2.20;67.00;;;;;;5051671;28;20266;-86
2021/03/09 05:24:50;;;;;;;10.87;3.80;;;2.30;66.70;;;;;;5052646;28;20294;-86
2021/03/09 05:27:18;;;;;;;10.27;4.37;;;2.40;66.40;;;;;;5052534;28;20191;-86
2021/03/09 05:29:43;;;;;;;8.07;5.00;;;2.40;66.50;;;;;;5075921;28;20668;-86
2021/03/09 05:32:09;;;;;;;4.10;3.30;;;2.50;66.40;;;;;;5032220;28;20195;-86
2021/03/09 05:34:35;;;;;;;3.17;2.93;;;2.50;66.30;;;;;;5060587;28;20269;-86
2021/03/09 05:37:01;;;;;;;9.73;3.60;;;2.60;66.10;;;;;;5059585;28;20203;-87
2021/03/09 05:39:26;;;;;;;12.63;3.93;;;2.60;66.10;;;;;;5035202;28;20840;-84
2021/03/09 05:41:52;;;;;;;9.10;3.37;;;2.70;66.00;;;;;;5040942;28;20545;-87
2021/03/09 05:44:18;;;;;;;6.10;4.07;;;2.80;65.90;;;;;;5039913;28;20180;-85
2021/03/09 05:46:44;;;;;;;4.03;3.20;;;2.90;65.70;;;;;;5061541;28;20187;-85
2021/03/09 05:49:10;;;;;;;4.53;4.10;;;3.00;65.70;;;;;;5050042;28;20196;-82
2021/03/09 05:51:35;;;;;;;4.60;3.83;;;3.00;65.60;;;;;;5073549;28;20186;-82
2021/03/09 05:54:01;;;;;;;5.07;3.73;;;3.10;65.30;;;;;;5037981;28;20182;-82
2021/03/09 05:56:27;;;;;;;5.67;3.73;;;3.10;65.20;;;;;;5049924;28;20349;-83
2021/03/09 05:58:53;;;;;;;3.67;3.37;;;3.10;65.00;;;;;;5057481;28;20179;-82
2021/03/09 06:01:19;;;;;;;6.90;3.53;;;3.20;64.90;;;;;;5051501;28;20702;-81
2021/03/09 06:03:46;;;;;;;7.03;4.30;;;3.20;65.30;;;;;;5041789;28;20183;-81
2021/03/09 06:06:12;;;;;;;4.50;3.23;;;3.20;65.60;;;;;;5047130;28;20271;-81
2021/03/09 06:08:38;;;;;;;3.13;2.90;;;3.20;65.60;;;;;;5045476;28;20211;-77
2021/03/09 06:11:20;;;;;;;6.37;3.53;;;3.20;66.00;;;;;;5042107;28;20636;-81
2021/03/09 06:13:47;;;;;;;5.83;4.30;;;3.30;66.50;;;;;;5072719;28;20183;-80
2021/03/09 06:16:14;;;;;;;8.57;4.40;;;3.30;65.70;;;;;;5056410;28;20204;-77
2021/03/09 06:18:57;;;;;;;6.70;4.47;;;3.30;66.40;;;;;;5065040;28;20182;-79
2021/03/09 06:21:25;;;;;;;10.03;4.53;;;3.30;66.30;;;;;;5055098;28;20759;-83
2021/03/09 06:23:51;;;;;;;7.17;4.00;;;3.40;66.50;;;;;;5042780;28;20336;-78
2021/03/09 06:26:40;;;;;;;5.67;5.07;;;3.40;66.20;;;;;;5056514;28;20694;-80
2021/03/09 06:29:11;;;;;;;6.43;4.07;;;3.50;65.90;;;;;;5058898;28;20563;-81
2021/03/09 06:31:41;;;;;;;6.00;4.80;;;3.50;66.00;;;;;;5053502;28;20282;-79
2021/03/09 06:34:23;;;;;;;5.00;4.47;;;3.60;65.80;;;;;;5049471;28;20193;-77
2021/03/09 06:37:07;;;;;;;5.60;4.73;;;3.70;65.60;;;;;;5078963;28;20214;-81
2021/03/09 06:39:57;;;;;;;7.77;5.20;;;3.80;65.00;;;;;;5040363;28;20675;-79
2021/03/09 06:42:32;;;;;;;10.93;5.47;;;3.90;64.80;;;;;;4986782;28;20265;-80
2021/03/09 06:45:00;;;;;;;9.07;5.00;;;4.00;64.90;;;;;;4980440;28;20346;-81
2021/03/09 06:47:38;;;;;;;14.67;5.90;;;4.10;64.80;;;;;;5000683;28;20193;-81
2021/03/09 06:50:12;;;;;;;10.23;5.33;;;4.10;65.00;;;;;;5004400;28;20185;-81
2021/03/09 06:52:40;;;;;;;10.77;5.33;;;4.20;64.90;;;;;;4992922;28;20180;-81
2021/03/09 06:55:08;;;;;;;11.20;7.07;;;4.20;64.90;;;;;;4995022;28;20181;-82
2021/03/09 06:57:35;;;;;;;13.17;6.57;;;4.20;65.10;;;;;;5009967;28;20691;-81
2021/03/09 07:00:00;;;;;;;13.37;7.07;;;4.30;64.70;;;;;;5010935;28;20308;-82
2021/03/09 07:02:27;;;;;;;9.87;7.03;;;4.40;64.70;;;;;;5003509;28;20185;-82
2021/03/09 07:05:00;;;;;;;14.13;7.77;;;4.60;64.60;;;;;;5001787;28;20181;-82
2021/03/09 07:07:38;;;;;;;16.23;7.60;;;4.70;64.10;;;;;;4999345;28;20196;-80
2021/03/09 07:10:03;;;;;;;11.27;6.90;;;4.70;63.80;;;;;;4981025;28;20181;-82
2021/03/09 07:12:29;;;;;;;29.00;7.77;;;4.70;63.70;;;;;;4987689;28;20270;-82
2021/03/09 07:14:57;;;;;;;12.57;7.60;;;4.80;63.60;;;;;;4982128;28;21063;-82
2021/03/09 07:17:28;;;;;;;11.53;7.93;;;5.00;63.20;;;;;;4985447;28;20625;-81
2021/03/09 07:19:56;;;;;;;17.57;9.17;;;5.10;63.20;;;;;;5031974;28;20207;-81
2021/03/09 07:22:23;;;;;;;15.00;7.40;;;5.20;63.20;;;;;;5032715;28;20586;-81
2021/03/09 07:25:06;;;;;;;17.67;7.63;;;5.30;63.10;;;;;;5056798;28;20183;-81
2021/03/09 07:27:44;;;;;;;9.97;7.23;;;5.50;62.90;;;;;;5043624;28;20266;-81
2021/03/09 07:30:11;;;;;;;18.87;8.50;;;5.70;62.40;;;;;;5048133;28;20222;-82
2021/03/09 07:32:46;;;;;;;13.00;7.73;;;5.90;61.80;;;;;;5035498;28;20195;-82
2021/03/09 07:35:12;;;;;;;12.37;7.10;;;6.20;61.60;;;;;;5043752;28;20973;-83
2021/03/09 07:37:40;;;;;;;16.33;9.23;;;6.20;61.40;;;;;;5055310;28;20203;-82
2021/03/09 07:40:10;;;;;;;13.67;8.27;;;6.40;60.90;;;;;;5070413;28;20198;-82
2021/03/09 07:42:36;;;;;;;17.33;10.07;;;6.50;60.60;;;;;;5068489;28;20185;-82
2021/03/09 07:45:04;;;;;;;23.90;9.80;;;6.80;60.00;;;;;;5050794;28;20319;-82
2021/03/09 07:47:30;;;;;;;27.27;11.57;;;7.10;60.00;;;;;;5049313;28;20186;-81
2021/03/09 07:49:56;;;;;;;21.57;11.53;;;7.40;59.40;;;;;;5072256;28;20665;-82
2021/03/09 07:52:25;;;;;;;29.27;12.30;;;7.60;58.80;;;;;;5068388;28;20254;-83
2021/03/09 07:55:03;;;;;;;19.70;12.97;;;7.80;58.30;;;;;;5053688;28;20266;-83
2021/03/09 07:57:31;;;;;;;26.93;13.90;;;8.10;58.00;;;;;;5081112;28;20274;-83
2021/03/09 08:00:00;;;;;;;23.07;13.77;;;8.30;57.70;;;;;;5042844;28;20217;-82
2021/03/09 08:02:51;;;;;;;27.07;15.30;;;8.50;57.00;;;;;;5048942;28;20186;-83
2021/03/09 08:05:20;;;;;;;28.17;13.47;;;8.70;56.60;;;;;;5047326;28;20190;-82
2021/03/09 08:08:03;;;;;;;29.93;13.83;;;8.80;56.30;;;;;;5042416;28;20236;-82
2021/03/09 08:10:43;;;;;;;25.33;12.63;;;9.00;56.30;;;;;;5067575;28;20589;-82
2021/03/09 08:13:11;;;;;;;33.13;14.17;;;9.10;55.50;;;;;;5066491;28;20190;-82
2021/03/09 08:15:38;;;;;;;27.43;14.50;;;9.30;55.40;;;;;;5066664;28;20203;-82
2021/03/09 08:18:19;;;;;;;23.80;12.90;;;9.40;55.00;;;;;;5047248;28;20171;-82
2021/03/09 08:20:56;;;;;;;22.90;9.43;;;9.60;55.00;;;;;;5046798;28;20194;-83
2021/03/09 08:23:31;;;;;;;15.97;9.37;;;10.00;53.90;;;;;;5045216;28;20191;-83
2021/03/09 08:26:02;;;;;;;12.53;9.23;;;10.40;54.30;;;;;;5043208;28;20174;-82
2021/03/09 08:28:35;;;;;;;15.70;9.07;;;10.90;53.20;;;;;;5065527;28;20167;-83
2021/03/09 08:31:19;;;;;;;15.80;9.53;;;11.30;51.90;;;;;;5044613;28;20631;-81
2021/03/09 08:33:47;;;;;;;14.20;9.40;;;11.70;51.50;;;;;;5064518;28;20179;-79
2021/03/09 08:36:24;;;;;;;14.87;9.77;;;12.00;51.30;;;;;;5050880;28;20574;-79
2021/03/09 08:39:03;;;;;;;13.83;9.33;;;12.30;50.80;;;;;;5059341;28;20179;-80
2021/03/09 08:41:35;;;;;;;14.77;8.87;;;12.30;50.20;;;;;;5033747;28;20190;-80
2021/03/09 08:44:20;;;;;;;14.43;9.17;;;12.30;49.50;;;;;;5056019;28;20628;-79
2021/03/09 08:47:03;;;;;;;11.35;8.15;;;12.20;49.60;;;;;;5058157;28;20204;-81
2021/03/09 08:49:35;;;;;;;14.50;9.53;;;12.10;50.00;;;;;;5035727;28;20213;-78
2021/03/09 08:52:04;;;;;;;14.17;9.17;;;11.90;50.00;;;;;;5052898;28;20176;-79
2021/03/09 08:54:37;;;;;;;14.07;9.13;;;11.80;50.20;;;;;;5031664;28;20685;-79
2021/03/09 08:57:09;;;;;;;11.85;7.65;;;11.70;50.30;;;;;;5073898;28;20191;-79
2021/03/09 08:59:36;;;;;;;17.87;8.60;;;11.70;50.30;;;;;;5067639;28;20558;-79
2021/03/09 09:02:13;;;;;;;13.87;9.00;;;11.70;50.50;;;;;;5038713;28;20631;-78
2021/03/09 09:04:42;;;;;;;18.50;9.47;;;11.70;50.30;;;;;;5049273;28;20178;-81
2021/03/09 09:07:36;;;;;;;19.70;9.32;;;11.70;50.80;;;;;;5049534;28;20322;-80
2021/03/09 09:10:10;;;;;;;16.07;9.70;;;11.70;50.60;;;;;;5068014;28;20190;-80
2021/03/09 09:12:44;;;;;;;10.77;7.70;;;11.60;50.60;;;;;;5072939;28;20198;-80
2021/03/09 09:15:16;;;;;;;15.57;9.67;;;11.50;51.00;;;;;;5080388;28;20186;-80
2021/03/09 09:17:49;;;;;;;15.77;9.10;;;11.40;51.00;;;;;;5066140;28;20276;-81
2021/03/09 09:20:28;;;;;;;14.13;9.20;;;11.30;50.60;;;;;;5069039;28;20208;-79
2021/03/09 09:22:54;;;;;;;18.57;9.07;;;11.10;51.20;;;;;;5065962;28;20190;-79
2021/03/09 09:25:22;;;;;;;17.80;9.33;;;11.00;51.60;;;;;;5077722;28;20194;-81
2021/03/09 09:27:54;;;;;;;18.27;9.83;;;11.00;51.40;;;;;;5046998;28;20250;-80
2021/03/09 09:30:33;;;;;;;18.30;9.93;;;10.90;51.20;;;;;;5068920;28;20197;-79
2021/03/09 09:33:00;;;;;;;14.60;9.33;;;10.80;51.40;;;;;;5072212;28;20265;-80
2021/03/09 09:35:28;;;;;;;16.40;9.23;;;10.70;51.20;;;;;;5075907;28;20198;-80
2021/03/09 09:37:57;;;;;;;12.27;9.20;;;10.60;51.30;;;;;;5046632;28;20601;-80
2021/03/09 09:40:33;;;;;;;13.40;8.97;;;10.50;51.30;;;;;;5049216;28;20175;-80
2021/03/09 09:43:02;;;;;;;15.77;9.77;;;10.40;51.50;;;;;;5065388;28;20200;-78
2021/03/09 09:45:29;;;;;;;12.27;7.57;;;10.30;51.40;;;;;;5048430;28;20175;-80
2021/03/09 09:47:56;;;;;;;15.00;8.60;;;10.20;51.20;;;;;;5052137;28;20685;-80
2021/03/09 09:50:23;;;;;;;19.60;9.37;;;10.10;51.30;;;;;;5046100;28;20375;-80
2021/03/09 09:52:57;;;;;;;13.57;8.43;;;10.00;51.90;;;;;;5063292;28;20191;-78
2021/03/09 09:55:24;;;;;;;14.97;9.30;;;10.00;51.90;;;;;;5067270;28;20197;-80
2021/03/09 09:57:51;;;;;;;15.07;9.13;;;10.00;52.40;;;;;;5085196;28;20182;-79
2021/03/09 10:00:27;;;;;;;13.50;8.20;;;9.90;51.70;;;;;;5043505;28;20253;-78
2021/03/09 10:03:10;;;;;;;15.30;8.83;;;9.90;51.70;;;;;;5038535;28;20669;-80
2021/03/09 10:05:37;;;;;;;16.43;8.97;;;9.90;51.90;;;;;;5065474;28;20183;-79
2021/03/09 10:08:05;;;;;;;10.40;7.50;;;9.80;51.60;;;;;;5067672;28;20183;-80
2021/03/09 10:10:31;;;;;;;15.17;8.53;;;9.80;51.80;;;;;;5055728;28;20179;-79
2021/03/09 10:12:56;;;;;;;15.13;8.83;;;9.80;52.00;;;;;;5076776;28;20186;-79
2021/03/09 10:15:22;;;;;;;15.13;7.40;;;9.90;51.70;;;;;;5068715;28;20238;-79
2021/03/09 10:17:48;;;;;;;11.30;7.93;;;10.00;52.00;;;;;;5050162;28;20266;-78
2021/03/09 10:20:23;;;;;;;11.73;7.90;;;10.10;52.10;;;;;;5076770;28;20207;-78
2021/03/09 10:22:52;;;;;;;13.20;7.77;;;10.10;51.80;;;;;;5047576;28;20712;-79
2021/03/09 10:25:19;;;;;;;12.63;7.90;;;10.20;51.60;;;;;;5062343;28;20187;-79
2021/03/09 10:27:44;;;;;;;12.47;7.57;;;10.30;51.40;;;;;;5054163;28;20180;-79
2021/03/09 10:30:10;;;;;;;13.07;8.33;;;10.40;51.50;;;;;;5042870;28;20183;-80
2021/03/09 10:32:52;;;;;;;16.83;8.40;;;10.50;51.30;;;;;;5045600;28;20192;-80
2021/03/09 10:35:18;;;;;;;12.17;8.70;;;10.50;51.50;;;;;;5047538;28;20179;-78
2021/03/09 10:37:43;;;;;;;12.90;8.07;;;10.60;51.40;;;;;;5062044;28;20221;-80
2021/03/09 10:40:10;;;;;;;14.80;7.77;;;10.70;51.20;;;;;;5065781;28;20187;-78
2021/03/09 10:42:58;;;;;;;12.73;8.30;;;10.80;51.20;;;;;;5063721;28;20191;-78
2021/03/09 10:45:26;;;;;;;14.47;9.10;;;10.90;50.90;;;;;;5047844;28;20191;-79
2021/03/09 10:47:54;;;;;;;13.83;8.33;;;11.10;51.00;;;;;;5063483;28;20191;-79
2021/03/09 10:50:22;;;;;;;17.23;8.07;;;11.30;50.40;;;;;;5062473;28;20201;-79
2021/03/09 10:52:48;;;;;;;10.77;8.40;;;11.50;50.10;;;;;;5054496;28;20183;-80
2021/03/09 10:55:14;;;;;;;9.97;7.87;;;11.70;49.70;;;;;;5045348;28;20193;-80
2021/03/09 10:57:41;;;;;;;14.57;8.53;;;11.80;50.00;;;;;;5062800;28;20789;-79
2021/03/09 11:00:12;;;;;;;12.40;8.40;;;11.80;49.70;;;;;;5041485;28;20647;-79
2021/03/09 11:02:38;;;;;;;12.27;8.07;;;11.80;49.60;;;;;;5081280;28;20191;-79
2021/03/09 11:05:05;;;;;;;14.33;8.20;;;11.80;49.60;;;;;;5059540;28;20217;-79
2021/03/09 11:07:31;;;;;;;13.37;8.57;;;11.90;49.70;;;;;;5061532;28;20520;-79
2021/03/09 11:09:56;;;;;;;14.15;8.40;;;11.90;49.00;;;;;;5067496;28;20189;-79
2021/03/09 11:12:22;;;;;;;16.73;8.77;;;11.90;49.20;;;;;;5050998;28;20193;-77
2021/03/09 11:14:48;;;;;;;17.33;9.53;;;12.00;49.30;;;;;;5054951;28;20187;-78
2021/03/09 11:17:14;;;;;;;15.13;9.35;;;12.10;49.30;;;;;;5064658;28;20234;-79
2021/03/09 11:19:40;;;;;;;11.40;7.47;;;12.20;49.20;;;;;;5074761;28;20203;-85
2021/03/09 11:22:06;;;;;;;12.35;7.78;;;12.40;48.90;;;;;;5057342;28;20202;-82
2021/03/09 11:24:31;;;;;;;14.55;8.77;;;12.50;48.80;;;;;;5068475;28;20175;-82
2021/03/09 11:27:01;;;;;;;14.15;8.52;;;12.50;48.70;;;;;;5048403;28;20191;-83
2021/03/09 11:29:31;;;;;;;15.95;9.48;;;12.60;48.60;;;;;;5038698;28;20195;-81
2021/03/09 11:31:57;;;;;;;14.00;8.50;;;12.60;48.40;;;;;;5062010;28;20187;-81
2021/03/09 11:34:24;;;;;;;16.35;9.93;;;12.60;48.40;;;;;;5049416;28;20192;-81
2021/03/09 11:36:50;;;;;;;18.42;9.90;;;12.50;47.90;;;;;;5059155;28;20258;-81
2021/03/09 11:39:16;;;;;;;18.52;10.23;;;12.50;48.30;;;;;;5041312;28;20187;-81
2021/03/09 11:41:42;;;;;;;14.00;9.55;;;12.50;48.30;;;;;;5073398;28;20190;-81
2021/03/09 11:44:08;;;;;;;20.63;10.15;;;12.50;48.50;;;;;;5074947;28;20592;-82
2021/03/09 11:46:35;;;;;;;18.60;11.05;;;12.60;48.70;;;;;;5042966;28;20183;-81
2021/03/09 11:49:01;;;;;;;17.70;9.40;;;12.70;48.40;;;;;;5035011;28;20191;-81
2021/03/09 11:51:27;;;;;;;16.05;9.63;;;12.70;48.40;;;;;;5060466;28;21119;-80
2021/03/09 11:53:53;;;;;;;16.48;8.57;;;12.70;48.30;;;;;;5063729;28;20195;-81
2021/03/09 11:56:19;;;;;;;12.57;8.07;;;12.70;48.00;;;;;;5049949;28;20220;-81
2021/03/09 11:58:44;;;;;;;11.48;7.50;;;12.60;47.90;;;;;;5074363;28;20561;-81
2021/03/09 12:01:10;;;;;;;15.38;6.65;;;12.50;47.60;;;;;;5036616;28;20520;-81
2021/03/09 12:03:36;;;;;;;8.20;5.75;;;12.50;47.20;;;;;;5048951;28;20179;-81
2021/03/09 12:06:02;;;;;;;13.05;7.40;;;12.40;47.20;;;;;;5052404;28;20189;-81
2021/03/09 12:08:27;;;;;;;10.87;7.37;;;12.30;47.50;;;;;;5054293;28;20175;-82
2021/03/09 12:10:53;;;;;;;14.98;7.78;;;12.10;47.40;;;;;;5065280;28;20198;-83
2021/03/09 12:13:19;;;;;;;10.63;7.82;;;11.90;48.00;;;;;;5047354;28;20222;-82
2021/03/09 12:15:44;;;;;;;11.02;8.25;;;11.80;48.40;;;;;;5067815;28;20203;-82
2021/03/09 12:18:10;;;;;;;11.40;7.20;;;11.70;48.80;;;;;;5051649;28;20632;-83
2021/03/09 12:20:37;;;;;;;10.20;7.18;;;11.80;48.40;;;;;;5050351;28;20203;-82
2021/03/09 12:23:03;;;;;;;15.25;6.63;;;11.70;48.10;;;;;;5068763;28;20215;-82
2021/03/09 12:25:29;;;;;;;9.77;5.63;;;11.70;48.60;;;;;;5045220;28;20230;-84
2021/03/09 12:27:55;;;;;;;6.27;5.50;;;11.70;48.20;;;;;;5076549;28;20236;-81
2021/03/09 12:30:22;;;;;;;8.50;6.00;;;11.70;48.00;;;;;;5032863;28;20290;-81
2021/03/09 12:32:49;;;;;;;11.93;6.47;;;11.70;48.10;;;;;;5048421;28;20183;-81
2021/03/09 12:35:16;;;;;;;13.30;5.25;;;11.70;48.10;;;;;;5078611;28;20187;-81
2021/03/09 12:37:42;;;;;;;8.70;4.85;;;11.60;48.60;;;;;;5078273;28;20178;-81
2021/03/09 12:40:08;;;;;;;6.32;4.95;;;11.50;48.60;;;;;;5029671;28;20432;-82
2021/03/09 12:42:34;;;;;;;9.65;6.22;;;11.50;48.60;;;;;;5065163;28;20187;-82
2021/03/09 12:45:01;;;;;;;9.52;6.32;;;11.50;48.80;;;;;;5065105;28;20179;-81
2021/03/09 12:47:27;;;;;;;12.40;6.25;;;11.50;48.80;;;;;;5065713;28;20621;-82
2021/03/09 12:49:52;;;;;;;17.20;7.68;;;11.40;48.80;;;;;;5065064;28;20187;-82
2021/03/09 12:52:18;;;;;;;13.63;6.82;;;11.40;49.00;;;;;;5062548;28;20394;-80
2021/03/09 12:54:45;;;;;;;7.00;5.20;;;11.30;48.90;;;;;;5075233;28;20183;-83
2021/03/09 12:57:11;;;;;;;7.07;5.10;;;11.20;48.10;;;;;;5048496;28;20207;-83
2021/03/09 12:59:37;;;;;;;9.27;5.65;;;11.10;48.30;;;;;;5067084;28;20657;-83